MacAlister, Canada
Current Conditions -  °F | °C
As of 1:00 PM on Thursday 18 Dec 2014 (Local Time) from CYWL Reporting Station
Broken Clouds Broken Clouds  
Wind Chill: 22°   Ceiling: 5000
Heat Index: 32°   Visibility: 15mi
Dew Point: 28°   Wind: 14mph
Humidity: 87%   Direction: 120°ESE
Pressure: 29.7"   Gusts: NA
Location:  52.45°N, 122.4°W
Report Text: CYWL 182100Z 12012KT 15SM SCT020 BKN050 BKN120 00/M02 A2970 RMK SC4SC2AC1 SLP092
Loading
Personal Weather Stations






























Interactive Weather Map New forecast layout! Learn more

10-Day Weather Forecast

Advertisements
Track Severe Weather on mobile